Home > Products > Valid Products > MTR

000
SAUS45 KFGZ 181054
MTRRQE
METAR KRQE 181053Z AUTO 00000KT 10SM CLR 01/M08 A3014 RMK AO2 SLP129
T00111078 TSNO





000
SAUS45 KFGZ 180958
MTRFLG
METAR KFLG 180957Z AUTO 00000KT 10SM CLR 03/M07 A3009 RMK AO2 SLP118
T00281072 TSNO





000
SAUS45 KFGZ 180954
MTRRQE
METAR KRQE 180953Z AUTO 00000KT 10SM CLR M01/M09 A3013 RMK AO2
SLP137 T10061094 TSNO





000
SAUS45 KFGZ 180858
MTRFLG
METAR KFLG 180857Z AUTO 00000KT 10SM CLR 03/M07 A3010 RMK AO2 SLP120
T00331072 58013 TSNO





000
SAUS45 KFGZ 180855
MTRRQE
METAR KRQE 180853Z AUTO 00000KT 10SM CLR 01/M09 A3015 RMK AO2 SLP137
T00111089 51000 TSNO





000
SAUS45 KFGZ 180758
MTRFLG
METAR KFLG 180757Z AUTO 00000KT 10SM CLR 03/M07 A3013 RMK AO2 SLP130
T00281072 TSNO





000
SAUS45 KFGZ 180754
MTRRQE
METAR KRQE 180753Z AUTO VRB03KT 10SM CLR 06/M08 A3015 RMK AO2 SLP124
T00561078 TSNO





000
SAUS45 KFGZ 180658
MTRFLG
METAR KFLG 180657Z AUTO 00000KT 10SM CLR 04/M08 A3014 RMK AO2 SLP133
T00441078 402061028 TSNO





000
SAUS45 KFGZ 180654
MTRRQE
METAR KRQE 180653Z AUTO 00000KT 10SM CLR 05/M07 A3015 RMK AO2 SLP135
T00501072 402221061 TSNO





000
SAUS45 KFGZ 180558
MTRFLG
METAR KFLG 180557Z AUTO 00000KT 10SM CLR 06/M08 A3015 RMK AO2 SLP136
T00561078 10189 20056 50006 TSNO





000
SAUS45 KFGZ 180554
MTRRQE
METAR KRQE 180553Z AUTO 00000KT 10SM CLR 05/M08 A3015 RMK AO2 SLP139
T00501083 10217 20050 50005 TSNO





000
SAUS45 KFGZ 180458
MTRFLG
METAR KFLG 180457Z AUTO 00000KT 10SM CLR 08/M08 A3016 RMK AO2 SLP138
T00781078 TSNO





000
SAUS45 KFGZ 180454
MTRRQE
METAR KRQE 180453Z AUTO 00000KT 10SM CLR 11/M08 A3015 RMK AO2 SLP129
T01111078 TSNO





000
SAUS45 KFGZ 180358
MTRFLG
METAR KFLG 180357Z 00000KT 10SM CLR 10/M08 A3015 RMK AO2 SLP138
T01001078





000
SAUS45 KFGZ 180354
MTRRQE
METAR KRQE 180353Z AUTO 11007KT 10SM CLR 12/M08 A3016 RMK AO2 SLP133
T01221078 TSNO





000
SAUS45 KFGZ 180258
MTRFLG
METAR KFLG 180257Z 21008KT 10SM CLR 13/M08 A3013 RMK AO2 SLP128
T01281078 53006





000
SAUS45 KFGZ 180254
MTRRQE
METAR KRQE 180253Z AUTO 18004KT 10SM CLR 11/M08 A3013 RMK AO2 SLP142
T01111078 53008 TSNO





000
SAUS45 KFGZ 180158
MTRFLG
METAR KFLG 180157Z 22008KT 10SM CLR 14/M07 A3011 RMK AO2 SLP140
T01441072





000
SAUS45 KFGZ 180154
MTRRQE
METAR KRQE 180153Z AUTO 31003KT 10SM CLR 18/M08 A3011 RMK AO2 SLP130
T01781078 TSNO





000
SAUS45 KFGZ 180058
MTRFLG
METAR KFLG 180057Z 22012KT 10SM CLR 18/M08 A3011 RMK AO2 SLP140
T01781078





000
SAUS45 KFGZ 180054
MTRRQE
METAR KRQE 180053Z AUTO 34006KT 10SM CLR 21/M08 A3009 RMK AO2 SLP126
T02061078 TSNO





000
SAUS45 KFGZ 172358
MTRFLG
METAR KFLG 172357Z 20012G19KT 10SM CLR 19/M08 A3010 RMK AO2 SLP133
T01941078 10206 20167 56007





000
SAUS45 KFGZ 172354
MTRRQE
METAR KRQE 172353Z AUTO 10SM CLR 21/M09 A3010 RMK AO2 SLP131
T02111089 56007 TSNO





000
SAUS45 KFGZ 172258
MTRFLG
METAR KFLG 172257Z 19014G21KT 10SM CLR 19/M07 A3010 RMK AO2 SLP134
T01941072





000
SAUS45 KFGZ 172254
MTRRQE
METAR KRQE 172253Z AUTO 35008KT 10SM CLR 22/M07 A3010 RMK AO2 SLP127
T02171072 TSNO





000
SAUS45 KFGZ 172158
MTRFLG
METAR KFLG 172157Z 21008G20KT 10SM CLR 19/M07 A3012 RMK AO2 SLP138
T01941072





000
SAUS45 KFGZ 172154
MTRRQE
METAR KRQE 172153Z AUTO 27008KT 21/M07 A3011 RMK AO2 SLP130
T02061072 TSNO





000
SAUS45 KFGZ 172058
MTRFLG
METAR KFLG 172057Z VRB04G21KT 10SM CLR 19/M07 A3013 RMK AO2 SLP140
T01941072 56009





000
SAUS45 KFGZ 172055
MTRRQE
METAR KRQE 172053Z AUTO 32009G15KT 260V020 10SM FEW095 21/M07 A3013
RMK AO2 SLP132 T02111072 56010 TSNO





000
SAUS45 KFGZ 171958
MTRFLG
METAR KFLG 171957Z 20014G20KT 130V240 10SM CLR 19/M07 A3014 RMK AO2
SLP144 T01891067





000
SAUS45 KFGZ 171954
MTRRQE
METAR KRQE 171953Z AUTO 28009G15KT 10SM FEW090 21/M07 A3013 RMK AO2
SLP137 T02061067 TSNO





000
SAUS45 KFGZ 171858
MTRFLG
METAR KFLG 171857Z 19010G17KT 10SM CLR 18/M06 A3015 RMK AO2 SLP144
T01831061





000
SAUS45 KFGZ 171854
MTRRQE
METAR KRQE 171853Z AUTO VRB03KT 10SM CLR 18/M07 A3014 RMK AO2 SLP143
T01831067 TSNO





000
SAUS45 KFGZ 171758
MTRFLG
METAR KFLG 171757Z 18007KT 140V220 10SM CLR 17/M06 A3017 RMK AO2
SLP150 T01721056 10172 21028 50004





000
SAUS45 KFGZ 171754
MTRRQE
METAR KRQE 171753Z AUTO VRB04KT 10SM CLR 16/M07 A3016 RMK AO2 SLP148
T01611067 10161 21061 58002 TSNO





000
SAUS45 KFGZ 171658
MTRFLG
METAR KFLG 171657Z 10SM CLR 16/M06 A3017 RMK AO2 SLP148 T01611061





000
SAUS45 KFGZ 171654
MTRRQE
METAR KRQE 171653Z AUTO 00000KT 10SM CLR 14/M06 A3017 RMK AO2 SLP144
T01441061 TSNO





000
SAUS45 KFGZ 171558
MTRFLG
METAR KFLG 171557Z 11006KT 10SM CLR 13/M04 A3016 RMK AO2 SLP145
T01331044





000
SAUS45 KFGZ 171554
MTRRQE
METAR KRQE 171553Z AUTO 00000KT 10SM CLR 12/M05 A3017 RMK AO2 SLP147
T01171050 TSNO





000
SAUS45 KFGZ 171458
MTRFLG
METAR KFLG 171457Z 00000KT 10SM CLR 10/M04 A3015 RMK AO2 SLP139
T01001044 51014





000
SAUS45 KFGZ 171454
MTRRQE
METAR KRQE 171453Z AUTO 00000KT 10SM CLR 07/M06 A3017 RMK AO2 SLP157
T00671061 53018 TSNO





000
SAUS45 KFGZ 171358
MTRFLG
METAR KFLG 171357Z 00000KT 10SM CLR 02/M06 A3014 RMK AO2 SLP147
T00171061





000
SAUS45 KFGZ 171354
MTRRQE
METAR KRQE 171353Z AUTO 00000KT 10SM CLR 01/M08 A3015 RMK AO2 SLP159
T00111078 TSNO





000
SAUS45 KFGZ 171258
MTRFLG
METAR KFLG 171257Z 00000KT 10SM CLR M03/M09 A3012 RMK AO2 SLP145
T10281089





000
SAUS45 KFGZ 171254
MTRRQE
METAR KRQE 171253Z AUTO 00000KT 10SM CLR M02/M09 A3013 RMK AO2
SLP155 T10221089 TSNO





000
SAUS45 KFGZ 171158
MTRFLG
METAR KFLG 171157Z AUTO 00000KT 10SM CLR M02/M09 A3010 RMK AO2
SLP138 T10221089 10028 21028 53004 TSNO





000
SAUS45 KFGZ 171154
MTRRQE
METAR KRQE 171153Z AUTO 00000KT 10SM CLR M03/M10 A3011 RMK AO2
SLP149 T10331100 10044 21039 53011 TSNO





000
SAUS45 KFGZ 171058
MTRFLG
METAR KFLG 171057Z AUTO 00000KT 10SM CLR M02/M09 A3009 RMK AO2
SLP133 T10221089 TSNO





000
SAUS45 KFGZ 171054
MTRRQE
METAR KRQE 171053Z AUTO 00000KT 10SM CLR M02/M09 A3009 RMK AO2
SLP134 T10221089 TSNO





000
SAUS45 KFGZ 170958
MTRFLG
METAR KFLG 170957Z AUTO 00000KT 10SM CLR M02/M09 A3009 RMK AO2
SLP134 T10221094 TSNO





000
SAUS45 KFGZ 170954
MTRRQE
METAR KRQE 170953Z AUTO 00000KT 10SM CLR M01/M08 A3007 RMK AO2
SLP125 T10111083 TSNO





000
SAUS45 KFGZ 170858
MTRFLG
METAR KFLG 170857Z AUTO 00000KT 10SM CLR M01/M09 A3008 RMK AO2
SLP126 T10111094 50003 TSNO





000
SAUS45 KFGZ 170854
MTRRQE
METAR KRQE 170853Z AUTO 21003KT 10SM CLR M01/M08 A3007 RMK AO2
SLP117 T10061083 51007 TSNO





000
SAUS45 KFGZ 170759
MTRFLG
METAR KFLG 170757Z AUTO 00000KT 10SM CLR M01/M09 A3009 RMK AO2
SLP131 T10061094 TSNO





000
SAUS45 KFGZ 170754
MTRRQE
METAR KRQE 170753Z AUTO 00000KT 10SM CLR M01/M09 A3006 RMK AO2
SLP116 T10111094 TSNO





000
SAUS45 KFGZ 170658
MTRFLG
METAR KFLG 170657Z AUTO 00000KT 10SM CLR 01/M10 A3008 RMK AO2 SLP123
T00111100 401891033 TSNO





000
SAUS45 KFGZ 170654
MTRRQE
METAR KRQE 170653Z AUTO 00000KT 10SM CLR 01/M08 A3006 RMK AO2 SLP110
T00061078 402061039 TSNO





000
SAUS45 KFGZ 170558
MTRFLG
METAR KFLG 170557Z AUTO 00000KT 10SM CLR 03/M09 A3007 RMK AO2 SLP117
T00281094 10183 20028 51019 TSNO





000
SAUS45 KFGZ 170554
MTRRQE
METAR KRQE 170553Z AUTO 00000KT 10SM CLR 04/M07 A3004 RMK AO2 SLP101
T00391072 10150 20033 51017 TSNO





000
SAUS45 KFGZ 170458
MTRFLG
METAR KFLG 170457Z AUTO 00000KT 10SM CLR 05/M10 A3006 RMK AO2 SLP109
T00501100 TSNO





000
SAUS45 KFGZ 170454
MTRRQE
METAR KRQE 170453Z AUTO 00000KT 10SM CLR 08/M06 A3002 RMK AO2 SLP089
T00781056 TSNO





000
SAUS45 KFGZ 170358
MTRFLG
METAR KFLG 170357Z AUTO 00000KT 10SM CLR 07/M11 A3004 RMK AO2 SLP101
T00721106 TSNO





000
SAUS45 KFGZ 170354
MTRRQE
METAR KRQE 170353Z AUTO 01006KT 10SM FEW120 09/M06 A3000 RMK AO2
SLP083 T00941061 TSNO





000
SAUS45 KFGZ 170258
MTRFLG
METAR KFLG 170257Z 31003KT 10SM SCT110 12/M11 A3001 RMK AO2 SLP085
T01171111 53017





000
SAUS45 KFGZ 170254
MTRRQE
METAR KRQE 170253Z AUTO 01005KT 10SM SCT110 11/M07 A2998 RMK AO2
SLP089 T01061067 53008 TSNO





000
SAUS45 KFGZ 170158
MTRFLG
METAR KFLG 170157Z 26005KT 10SM SCT120 16/M12 A2997 RMK AO2 SLP077
T01561122





000
SAUS45 KFGZ 170154
MTRRQE
METAR KRQE 170153Z AUTO 34005KT 10SM BKN100 BKN110 13/M08 A2996 RMK
AO2 SLP089 T01281078 TSNO





000
SAUS45 KFGZ 170058
MTRFLG
METAR KFLG 170057Z 26008G15KT 10SM FEW120 18/M13 A2995 RMK AO2
SLP078 T01781133





000
SAUS45 KFGZ 170055
MTRRQE
METAR KRQE 170053Z AUTO 25009KT 10SM OVC090 14/M07 A2995 RMK AO2
SLP089 T01441072 TSNO





000
SAUS45 KFGZ 162358
MTRFLG
METAR KFLG 162357Z 24010G18KT 10SM BKN120 18/M12 A2994 RMK AO2
SLP083 T01781122 10189 20161 56006





000
SAUS45 KFGZ 162354
MTRRQE
METAR KRQE 162353Z AUTO 33013KT 10SM OVC100 15/M08 A2995 RMK AO2
WSHFT 2240 SLP079 T01501083 10206 20150 53010 TSNO





000
SAUS45 KFGZ 162258
MTRFLG
METAR KFLG 162257Z AUTO 27010G21KT 10SM SCT120 17/M13 A2995 RMK AO2
PK WND 26026/2234 SLP087 T01721128 TSNO





000
SAUS45 KFGZ 162254
MTRRQE
METAR KRQE 162253Z AUTO 36016G24KT 10SM FEW110 17/M10 A2993 RMK AO2
PK WND 35031/2236 WSHFT 2234 SLP071 T01721100 TSNO





000
SAUS45 KFGZ 162158
MTRFLG
METAR KFLG 162157Z AUTO 25015G20KT 10SM SCT110 18/M14 A2996 RMK AO2
SLP084 T01781139 TSNO





000
SAUS45 KFGZ 162154
MTRRQE
METAR KRQE 162153Z AUTO 30014G27KT 10SM FEW120 17/M13 A2992 RMK AO2
PK WND 32027/2148 SLP069 T01721133 TSNO





000
SAUS45 KFGZ 162058
MTRFLG
METAR KFLG 162057Z 25009G28KT 220V290 10SM CLR 18/M13 A2997 RMK AO2
PK WND 20028/2052 SLP086 T01831128 56006





000
SAUS45 KFGZ 162054
MTRRQE
METAR KRQE 162053Z AUTO 26012G22KT 10SM FEW120 19/M14 A2991 RMK AO2
SLP059 T01941144 56012 TSNO





000
SAUS45 KFGZ 161958
MTRFLG
METAR KFLG 161957Z 26011G16KT 10SM BKN110 17/M13 A2998 RMK AO2
SLP095 T01671128





000
SAUS45 KFGZ 161954
MTRRQE
METAR KRQE 161953Z AUTO VRB04G16KT 10SM CLR 19/M15 A2992 RMK AO2
SLP061 T01891150 TSNO





000
SAUS45 KFGZ 161858
MTRFLG
METAR KFLG 161857Z 26010G18KT 10SM CLR 18/M13 A2998 RMK AO2 SLP092
T01781128





000
SAUS45 KFGZ 161854
MTRRQE
METAR KRQE 161853Z AUTO 26013G18KT 10SM CLR 19/M16 A2994 RMK AO2
SLP068 T01891156 TSNO





000
SAUS45 KFGZ 161758
MTRFLG
METAR KFLG 161757Z 25008G16KT 220V290 10SM CLR 17/M13 A2999 RMK AO2
SLP091 T01671133 10172 21022 50000





000
SAUS45 KFGZ 161754
MTRRQE
METAR KRQE 161753Z AUTO 26012G17KT 10SM CLR 17/M14 A2996 RMK AO2
SLP075 T01721144 10172 21039 58005 TSNO





000
SAUS45 KFGZ 161658
MTRFLG
METAR KFLG 161657Z 29010KT 10SM CLR 16/M11 A3000 RMK AO2 SLP087
T01611111





000
SAUS45 KFGZ 161654
MTRRQE
METAR KRQE 161653Z AUTO 00000KT 10SM CLR 15/M16 A2996 RMK AO2 SLP077
T01501161 TSNO





000
SAUS45 KFGZ 161558
MTRFLG
METAR KFLG 161557Z 28006G16KT 10SM CLR 14/M11 A2999 RMK AO2 SLP088
T01391106





000
SAUS45 KFGZ 161554
MTRRQE
METAR KRQE 161553Z AUTO 24005KT 10SM CLR 13/M16 A2997 RMK AO2 SLP079
T01281156 TSNO





000
SAUS45 KFGZ 161458
MTRFLG
METAR KFLG 161457Z VRB04KT 10SM CLR 12/M12 A2999 RMK AO2 SLP085
T01171122 51004





000
SAUS45 KFGZ 161454
MTRRQE
METAR KRQE 161453Z AUTO 00000KT 10SM CLR 07/M16 A2997 RMK AO2 SLP089
T00721156 51013 TSNO





000
SAUS45 KFGZ 161358
MTRFLG
METAR KFLG 161357Z 21005KT 10SM CLR 06/M12 A2999 RMK AO2 SLP093
T00561122





000
SAUS45 KFGZ 161354
MTRRQE
METAR KRQE 161353Z AUTO 00000KT 10SM CLR 01/M16 A2997 RMK AO2 SLP098
T00111156 TSNO





000
SAUS45 KFGZ 161258
MTRFLG
METAR KFLG 161257Z 00000KT 10SM CLR M01/M16 A2998 RMK AO2 SLP099
T10061156





000
SAUS45 KFGZ 161254
MTRRQE
METAR KRQE 161253Z AUTO 34003KT 10SM CLR M02/M17 A2995 RMK AO2
SLP087 T10171167 TSNO





000
SAUS45 KFGZ 161158
MTRFLG
METAR KFLG 161157Z AUTO 00000KT 10SM CLR M02/M16 A2998 RMK AO2
SLP100 T10221156 10039 21033 58005 TSNO





000
SAUS45 KFGZ 161154
MTRRQE
METAR KRQE 161153Z AUTO 06004KT 10SM CLR 03/M16 A2993 RMK AO2 SLP064
T00281161 10061 21017 56007 TSNO





000
SAUS45 KFGZ 161058
MTRFLG
METAR KFLG 161057Z AUTO 00000KT 10SM CLR M03/M14 A2998 RMK AO2
SLP103 T10331144 TSNO





000
SAUS45 KFGZ 161054
MTRRQE
METAR KRQE 161053Z AUTO 00000KT 10SM CLR 01/M17 A2993 RMK AO2 SLP070
T00061167 TSNO





000
SAUS45 KFGZ 160958
MTRFLG
METAR KFLG 160957Z AUTO 00000KT 10SM CLR M02/M15 A2999 RMK AO2
SLP100 T10171150 TSNO





000
SAUS45 KFGZ 160954
MTRRQE
METAR KRQE 160953Z AUTO 00000KT 10SM CLR 00/M17 A2995 RMK AO2 SLP075
T00001167 TSNO





000
SAUS45 KFGZ 160858
MTRFLG
METAR KFLG 160857Z AUTO 22004KT 10SM CLR M01/M16 A2999 RMK AO2
SLP098 T10061161 58007 TSNO





000
SAUS45 KFGZ 160854
MTRRQE
METAR KRQE 160853Z AUTO 10SM CLR 00/M18 A2996 RMK AO2 SLP077
T00001178 58007 TSNO





000
SAUS45 KFGZ 160758
MTRFLG
METAR KFLG 160757Z AUTO 23003KT 10SM CLR M01/M14 A3000 RMK AO2
SLP104 T10111144 TSNO





000
SAUS45 KFGZ 160754
MTRRQE
METAR KRQE 160753Z AUTO 00000KT 10SM CLR 01/M18 A2997 RMK AO2 SLP078
T00061178 TSNO





000
SAUS45 KFGZ 160658
MTRFLG
METAR KFLG 160657Z AUTO 00000KT 10SM CLR M01/M14 A3002 RMK AO2
SLP111 T10111139 401781083 TSNO





000
SAUS45 KFGZ 160654
MTRRQE
METAR KRQE 160653Z AUTO 10003KT 10SM CLR 01/M18 A2998 RMK AO2 SLP088
T00061183 402001089 TSNO





000
SAUS45 KFGZ 160558
MTRFLG
METAR KFLG 160557Z AUTO 21004KT 10SM CLR 02/M13 A3002 RMK AO2 SLP107
T00221133 10156 20011 50000 TSNO





000
SAUS45 KFGZ 160554
MTRRQE
METAR KRQE 160553Z AUTO 18004KT 10SM CLR 03/M18 A2998 RMK AO2 SLP090
T00281183 10172 20017 50000 TSNO





000
SAUS45 KFGZ 160458
MTRFLG
METAR KFLG 160457Z AUTO 22006KT 10SM CLR 05/M13 A3004 RMK AO2 SLP109
T00501133 TSNO





000
SAUS45 KFGZ 160454
MTRRQE
METAR KRQE 160453Z AUTO 00000KT 10SM CLR 05/M19 A2999 RMK AO2 SLP094
T00501189 TSNO





000
SAUS45 KFGZ 160358
MTRFLG
METAR KFLG 160357Z AUTO 00000KT 10SM CLR 06/M13 A3005 RMK AO2 SLP121
T00561133 TSNO





000
SAUS45 KFGZ 160354
MTRRQE
METAR KRQE 160353Z AUTO 00000KT 10SM CLR 07/M19 A2999 RMK AO2 SLP095
T00671189 TSNO





000
SAUS45 KFGZ 160258
MTRFLG
METAR KFLG 160257Z AUTO 23003KT 10SM CLR 09/M13 A3002 RMK AO2 SLP115
T00891133 53000 TSNO





000
SAUS45 KFGZ 160254
MTRRQE
METAR KRQE 160253Z AUTO 22003KT 10SM CLR 09/M19 A2998 RMK AO2 SLP104
T00891189 55005 TSNO





000
SAUS45 KFGZ 160158
MTRFLG
METAR KFLG 160157Z AUTO 23007KT 10SM CLR 12/M13 A3001 RMK AO2 SLP124
T01221133 TSNO





000
SAUS45 KFGZ 160155
MTRRQE
METAR KRQE 160153Z AUTO 20003KT 10SM CLR 12/M21 A2997 RMK AO2 SLP108
T01221211 TSNO





000
SAUS45 KFGZ 160058
MTRFLG
METAR KFLG 160057Z AUTO 22011KT 10SM CLR 14/M15 A3002 RMK AO2 SLP132
T01441150 TSNO





000
SAUS45 KFGZ 160054
MTRRQE
METAR KRQE 160053Z AUTO 25008KT 10SM CLR 16/M24 A2998 RMK AO2 SLP114
T01561239 TSNO





000
SAUS45 KFGZ 152359 COR
MTRFLG
METAR KFLG 152357Z AUTO 23015G20KT 10SM CLR 16/M18 A3002 RMK AO2
SLP130 T01561178 10178 20139 56022 TSNO





000
SAUS45 KFGZ 152354
MTRRQE
METAR KRQE 152353Z AUTO 26014KT 10SM CLR 17/M24 A3000 RMK AO2 SLP116
T01671239 10200 20150 56015 TSNO





000
SAUS45 KFGZ 152258
MTRFLG
METAR KFLG 152257Z AUTO 25010G19KT 10SM CLR 16/M20 A3004 RMK AO2
SLP134 T01611200 TSNO





000
SAUS45 KFGZ 152254
MTRRQE
METAR KRQE 152253Z AUTO 25016G22KT 10SM CLR 18/M26 A3001 RMK AO2
SLP115 T01781261 TSNO





000
SAUS45 KFGZ 152158
MTRFLG
METAR KFLG 152157Z AUTO 24011G22KT 10SM CLR 17/M22 A3006 RMK AO2
SLP134 T01721217 TSNO





000
SAUS45 KFGZ 152154
MTRRQE
METAR KRQE 152153Z AUTO 25017G22KT 10SM CLR 19/M24 A3002 RMK AO2
SLP118 T01891244 TSNO





000
SAUS45 KFGZ 152058
MTRFLG
METAR KFLG 152057Z 22015G22KT 10SM CLR 17/M17 A3010 RMK AO2 SLP149
T01671172 56014





000
SAUS45 KFGZ 152054
MTRRQE
METAR KRQE 152053Z AUTO 26014G20KT 10SM CLR 19/M24 A3005 RMK AO2
SLP129 T01891244 56026 TSNO





000
SAUS45 KFGZ 151958
MTRFLG
METAR KFLG 151957Z 20014G23KT 10SM CLR 16/M17 A3010 RMK AO2 SLP149
T01611172





000
SAUS45 KFGZ 151954
MTRRQE
METAR KRQE 151953Z AUTO 10SM CLR 19/M22 A3007 RMK AO2 SLP128
T01941222 TSNO





000
SAUS45 KFGZ 151858
MTRFLG
METAR KFLG 151857Z 22012G18KT 10SM CLR 16/M17 A3013 RMK AO2 SLP155
T01611167





000
SAUS45 KFGZ 151854
MTRRQE
METAR KRQE 151853Z AUTO 00000KT 10SM CLR 17/M19 A3011 RMK AO2 SLP146
T01671189 TSNO





000
SAUS45 KFGZ 151758
MTRFLG
METAR KFLG 151757Z VRB03KT 10SM CLR 14/M20 A3015 RMK AO2 SLP167
T01391200 10150 21083 58008





000
SAUS45 KFGZ 151754
MTRRQE
METAR KRQE 151753Z AUTO 10SM CLR 15/M17 A3014 RMK AO2 SLP153
T01501167 10150 21078 58015 TSNO





000
SAUS45 KFGZ 151658
MTRFLG
METAR KFLG 151657Z VRB05KT 10SM CLR 13/M16 A3016 RMK AO2 SLP167
T01331161





000
SAUS45 KFGZ 151654
MTRRQE
METAR KRQE 151653Z AUTO 19008KT 10SM CLR 12/M16 A3017 RMK AO2 SLP161
T01221161 TSNO





000
SAUS45 KFGZ 151558
MTRFLG
METAR KFLG 151557Z 00000KT 10SM CLR 10/M14 A3017 RMK AO2 SLP172
T01001144





000
SAUS45 KFGZ 151554
MTRRQE
METAR KRQE 151553Z AUTO VRB03KT 10SM CLR 09/M17 A3019 RMK AO2 SLP174
T00941172 TSNO





000
SAUS45 KFGZ 151458
MTRFLG
METAR KFLG 151457Z 00000KT 10SM CLR 04/M13 A3018 RMK AO2 SLP184
T00441128 56001





000
SAUS45 KFGZ 151454
MTRRQE
METAR KRQE 151453Z AUTO 00000KT 10SM CLR 03/M17 A3020 RMK AO2 SLP188
T00331172 58000 TSNO





000
SAUS45 KFGZ 151358
MTRFLG
METAR KFLG 151357Z 00000KT 10SM CLR M04/M13 A3018 RMK AO2 SLP197
T10391133





000
SAUS45 KFGZ 151354
MTRRQE
METAR KRQE 151353Z AUTO 00000KT 10SM CLR M03/M17 A3021 RMK AO2
SLP204 T10331167 TSNO





000
SAUS45 KFGZ 151258
MTRFLG
METAR KFLG 151257Z 00000KT 10SM CLR M08/M16 A3018 RMK AO2 SLP203
T10831161





000
SAUS45 KFGZ 151254
MTRRQE
METAR KRQE 151253Z AUTO 34003KT 10SM CLR M07/M18 A3021 RMK AO2
SLP201 T10721178 TSNO





000
SAUS45 KFGZ 151158
MTRFLG
METAR KFLG 151157Z AUTO 05003KT 10SM CLR M08/M16 A3018 RMK AO2
SLP201 T10831156 11028 21083 58013 TSNO





000
SAUS45 KFGZ 151154
MTRRQE
METAR KRQE 151153Z AUTO 00000KT 10SM CLR M07/M17 A3020 RMK AO2
SLP197 T10671167 10000 21089 58011 TSNO





    US Dept of Commerce
    National Oceanic and Atmospheric Administration
    National Weather Service
    1325 East West Highway
    Silver Spring, MD 20910
    Page Author: NWS Internet Services Team
Disclaimer
Information Quality
Credits
Glossary
Privacy Policy
Freedom of Information Act (FOIA)
About Us
Career Opportunities